createdAt,value
2022-11-18T00:07:21.475Z,13.50
2022-11-18T00:17:27.136Z,12.30
2022-11-18T00:27:33.714Z,11.70
2022-11-18T00:37:39.523Z,10.60
2022-11-18T00:47:45.080Z,11.10
2022-11-18T00:57:50.621Z,11.50
2022-11-18T01:07:56.254Z,11.30
2022-11-18T01:18:01.930Z,12.30
2022-11-18T01:28:08.035Z,13.10
2022-11-18T01:38:15.203Z,12.60
2022-11-18T01:48:25.227Z,10.90
2022-11-18T01:58:37.314Z,10.00
2022-11-18T02:08:43.732Z,10.30
2022-11-18T02:18:56.396Z,10.90
2022-11-18T02:29:09.571Z,10.40
2022-11-18T02:39:23.258Z,12.20
2022-11-18T02:49:34.904Z,11.60
2022-11-18T02:59:40.781Z,12.00
2022-11-18T03:09:48.913Z,10.30
2022-11-18T03:20:08.303Z,11.70
2022-11-18T03:30:17.205Z,8.90
2022-11-18T03:40:30.159Z,11.50
2022-11-18T03:50:40.834Z,13.20
2022-11-18T04:00:49.677Z,13.30
2022-11-18T04:11:01.718Z,12.20
2022-11-18T04:21:08.404Z,11.30
2022-11-18T04:31:14.083Z,14.80
2022-11-18T04:41:19.992Z,14.20
2022-11-18T04:51:25.796Z,14.60
2022-11-18T05:01:32.112Z,19.90
2022-11-18T05:11:55.422Z,21.30
2022-11-18T05:22:01.551Z,17.80
2022-11-18T05:32:07.878Z,14.00
2022-11-18T05:42:31.686Z,13.50
2022-11-18T05:52:37.217Z,16.90
2022-11-18T06:02:44.466Z,17.80
2022-11-18T06:12:53.675Z,23.10
2022-11-18T06:23:01.089Z,20.90
2022-11-18T06:33:06.680Z,18.10
2022-11-18T06:43:30.924Z,15.70
2022-11-18T06:53:37.712Z,17.20
2022-11-18T07:03:44.841Z,13.90
2022-11-18T07:13:50.577Z,8.40
2022-11-18T07:23:56.965Z,9.80
2022-11-18T07:34:02.703Z,11.20
2022-11-18T07:44:08.480Z,8.50
2022-11-18T07:54:17.068Z,12.60
2022-11-18T08:04:22.726Z,15.80
2022-11-18T08:14:29.213Z,8.10
2022-11-18T08:24:34.748Z,5.00
2022-11-18T08:34:40.500Z,5.30
2022-11-18T08:44:46.152Z,5.30
2022-11-18T08:54:51.755Z,6.30
2022-11-18T09:04:57.398Z,5.00
2022-11-18T09:15:13.557Z,4.70
2022-11-18T09:25:20.374Z,5.80
2022-11-18T09:35:26.300Z,3.00
2022-11-18T09:45:39.482Z,3.20
2022-11-18T09:55:46.120Z,3.90
2022-11-18T10:05:57.857Z,4.70
2022-11-18T10:16:16.868Z,4.50
2022-11-18T10:26:37.181Z,4.60
2022-11-18T10:36:43.019Z,3.90
2022-11-18T10:46:48.642Z,6.10
2022-11-18T10:56:58.640Z,2.70
2022-11-18T11:07:18.233Z,4.60
2022-11-18T11:17:31.383Z,6.00
2022-11-18T11:38:18.915Z,5.90
2022-11-18T11:48:39.876Z,3.20
2022-11-18T11:59:07.082Z,4.00
2022-11-18T12:09:19.814Z,5.10
2022-11-18T12:19:26.359Z,4.90
2022-11-18T12:29:44.420Z,7.40
2022-11-18T12:39:58.616Z,3.10
2022-11-18T12:50:16.318Z,4.80
2022-11-18T13:00:53.122Z,9.00
2022-11-18T13:11:23.805Z,6.20
2022-11-18T13:21:49.071Z,6.50
2022-11-18T13:32:08.182Z,9.80
2022-11-18T13:42:21.047Z,5.40
2022-11-18T13:52:32.867Z,7.70
2022-11-18T14:02:46.347Z,6.80
2022-11-18T14:13:00.832Z,5.20
2022-11-18T14:23:16.074Z,5.70
2022-11-18T14:33:24.248Z,5.20
2022-11-18T14:43:30.164Z,4.60
2022-11-18T14:53:36.127Z,10.70
2022-11-18T15:03:42.268Z,5.60
2022-11-18T15:13:49.490Z,17.40
2022-11-18T15:23:55.259Z,6.40
2022-11-18T15:34:06.512Z,18.70
2022-11-18T15:44:13.611Z,12.40
2022-11-18T15:54:20.588Z,7.90
2022-11-18T16:04:27.339Z,5.60
2022-11-18T16:14:33.143Z,9.00
2022-11-18T16:24:40.930Z,9.80
2022-11-18T16:34:49.799Z,7.40
2022-11-18T16:44:55.400Z,7.80
2022-11-18T16:55:01.528Z,9.20
2022-11-18T17:05:08.668Z,10.10
2022-11-18T17:15:14.328Z,16.00
2022-11-18T17:25:19.948Z,9.70
2022-11-18T17:35:25.593Z,12.70
2022-11-18T17:45:31.369Z,11.80
2022-11-18T17:55:36.931Z,15.90
2022-11-18T18:05:42.558Z,12.70
2022-11-18T18:15:48.088Z,13.90
2022-11-18T18:25:53.930Z,14.00
2022-11-18T18:36:00.815Z,14.70
2022-11-18T18:46:26.032Z,23.80
2022-11-18T18:56:31.715Z,21.50
2022-11-18T19:06:53.233Z,11.40
2022-11-18T19:17:06.641Z,10.90
2022-11-18T19:27:15.973Z,11.20
2022-11-18T19:37:21.617Z,14.00
2022-11-18T19:47:27.415Z,9.20
2022-11-18T19:57:33.860Z,11.10
2022-11-18T20:07:39.458Z,8.80
2022-11-18T20:17:45.043Z,10.30
2022-11-18T20:27:50.638Z,13.60
2022-11-18T20:37:56.675Z,8.10
2022-11-18T20:48:02.315Z,10.10
2022-11-18T20:58:08.194Z,8.60
2022-11-18T21:18:18.062Z,11.50
2022-11-18T21:28:27.581Z,9.50
2022-11-18T21:38:33.440Z,9.30
2022-11-18T21:48:40.114Z,10.20
2022-11-18T21:58:46.050Z,14.50
2022-11-18T22:08:51.823Z,12.50
2022-11-18T22:19:05.016Z,12.60
2022-11-18T22:29:13.668Z,23.90
2022-11-18T22:39:19.724Z,13.50
2022-11-18T22:49:25.444Z,13.00
2022-11-18T23:09:35.189Z,13.90
2022-11-18T23:19:43.719Z,12.30
2022-11-18T23:29:49.440Z,15.00
2022-11-18T23:49:59.365Z,15.80
